Time;durP1;ratioP1;P1;durP2;ratioP2;P2;SDS_P1;SDS_P2;PMS_P1;PMS_P2;Temp;Humidity;BMP_temperature;BMP_pressure;BME280_temperature;BME280_humidity;BME280_pressure;Samples;Min_cycle;Max_cycle;Signal;HPM_P1;HPM_P2
2024/01/19 00:02:00;;;;;;;32.50;18.37;;;-4.70;99.90;-5.30;99856.00;;;;4926831;28;88347;-67
2024/01/19 00:04:27;;;;;;;31.87;17.30;;;-4.60;99.90;-5.30;99850.00;;;;4930981;28;87427;-66
2024/01/19 00:06:53;;;;;;;33.60;16.70;;;-3.60;99.90;-5.30;99851.00;;;;4921961;28;87222;-65
2024/01/19 00:09:24;;;;;;;31.70;18.17;;;-4.70;99.90;-5.30;99867.00;;;;4924064;28;87501;-66
2024/01/19 00:11:57;;;;;;;35.80;20.40;;;-4.80;99.90;-5.40;99853.00;;;;4940810;28;87485;-66
2024/01/19 00:16:02;;;;;;;33.40;18.30;;;-4.70;99.90;-5.40;99866.00;;;;4921771;28;87492;-65
2024/01/19 00:18:18;;;;;;;36.33;19.57;;;-4.70;99.90;-5.40;99879.00;;;;4924803;28;87560;-65
2024/01/19 00:20:55;;;;;;;32.53;18.60;;;-4.80;99.90;-5.40;99874.00;;;;4928264;28;87142;-65
2024/01/19 00:23:23;;;;;;;37.00;19.40;;;-4.70;99.90;-5.40;99876.00;;;;4928472;28;88039;-66
2024/01/19 00:26:49;;;;;;;31.13;18.97;;;-4.80;99.90;-5.50;99883.00;;;;4927833;28;87178;-65
2024/01/19 00:29:15;;;;;;;32.17;17.37;;;-4.70;99.90;-5.50;99890.00;;;;4933169;28;88376;-65
2024/01/19 00:31:55;;;;;;;;;;;;;;;;;;;;;
2024/01/19 00:34:22;;;;;;;27.53;18.13;;;-4.90;99.90;-5.50;99897.00;;;;4921126;28;116707;-64
2024/01/19 00:36:51;;;;;;;33.30;17.47;;;-4.80;99.90;-5.60;99901.00;;;;4907501;28;87474;-64
2024/01/19 00:39:20;;;;;;;30.70;16.87;;;-5.00;99.90;-5.60;99898.00;;;;4927762;28;86906;-64
2024/01/19 00:41:46;;;;;;;29.53;18.50;;;-4.90;99.90;-5.60;99905.00;;;;4925707;28;87662;-65
2024/01/19 00:44:15;;;;;;;34.77;18.50;;;-5.10;99.90;-5.70;99912.00;;;;4926898;28;87340;-65
2024/01/19 00:46:41;;;;;;;30.80;18.10;;;-4.90;99.90;-5.70;99915.00;;;;4925723;28;86308;-66
2024/01/19 00:49:07;;;;;;;30.23;18.70;;;-5.10;99.90;-5.70;99907.00;;;;4933270;28;87901;-62
2024/01/19 00:51:33;;;;;;;22.17;15.20;;;-5.10;99.90;-5.80;99922.00;;;;4916028;28;115574;-61
2024/01/19 00:53:58;;;;;;;31.43;15.60;;;-5.10;99.90;-5.80;99913.00;;;;4932391;28;88918;-63
2024/01/19 00:56:24;;;;;;;27.97;16.80;;;-5.30;99.90;-5.80;99919.00;;;;4916741;28;114138;-62
2024/01/19 00:58:50;;;;;;;28.73;17.47;;;-5.20;99.90;-5.90;99922.00;;;;4918379;28;107392;-62
2024/01/19 01:01:15;;;;;;;26.97;15.83;;;-5.30;99.90;-5.90;99909.00;;;;4916839;28;117795;-62
2024/01/19 01:03:41;;;;;;;39.27;19.23;;;-5.40;99.90;-5.90;99915.00;;;;4919968;28;116581;-63
2024/01/19 01:06:07;;;;;;;32.63;17.60;;;-5.30;99.90;-6.00;99927.00;;;;4917993;28;112969;-62
2024/01/19 01:08:35;;;;;;;33.57;18.37;;;-5.40;99.90;-6.10;99929.00;;;;4916715;28;109701;-62
2024/01/19 01:11:02;;;;;;;24.93;17.13;;;-5.30;99.90;-6.10;99931.00;;;;4917151;28;90477;-63
2024/01/19 01:13:28;;;;;;;30.73;18.37;;;-5.40;99.90;-6.20;99936.00;;;;4918861;28;87728;-62
2024/01/19 01:15:54;;;;;;;29.90;17.07;;;-5.60;99.90;-6.20;99930.00;;;;4919533;28;113353;-62
2024/01/19 01:18:25;;;;;;;32.87;17.63;;;-5.50;99.90;-6.30;99942.00;;;;4920087;28;89224;-62
2024/01/19 01:20:51;;;;;;;31.67;18.13;;;-5.70;99.90;-6.30;99936.00;;;;4917517;28;89658;-62
2024/01/19 01:23:17;;;;;;;34.40;16.07;;;-5.60;99.90;-6.30;99947.00;;;;4919118;28;87856;-64
2024/01/19 01:25:43;;;;;;;29.40;16.43;;;-5.70;99.90;-6.30;99938.00;;;;4920643;28;88152;-64
2024/01/19 01:28:09;;;;;;;26.10;16.63;;;-5.60;99.90;-6.30;99944.00;;;;4918725;28;87977;-63
2024/01/19 01:30:35;;;;;;;28.57;16.73;;;-5.70;99.90;-6.30;99949.00;;;;4917668;28;95067;-62
2024/01/19 01:33:01;;;;;;;28.70;15.33;;;-5.80;99.90;-6.30;99948.00;;;;4918243;28;88211;-63
2024/01/19 01:35:26;;;;;;;28.10;16.40;;;-5.70;99.90;-6.30;99954.00;;;;4916491;28;110911;-63
2024/01/19 01:37:52;;;;;;;28.07;17.33;;;-5.30;99.90;-6.30;99952.00;;;;4917969;28;87915;-63
2024/01/19 01:40:18;;;;;;;26.43;15.63;;;-5.20;99.90;-6.40;99944.00;;;;4916517;28;118086;-62
2024/01/19 01:42:44;;;;;;;26.10;16.03;;;-5.80;99.90;-6.40;99959.00;;;;4915720;28;117601;-61
2024/01/19 01:45:10;;;;;;;28.67;15.60;;;-5.80;99.90;-6.40;99963.00;;;;4914600;28;88096;-63
2024/01/19 01:47:36;;;;;;;33.97;17.53;;;-5.80;99.90;-6.50;99956.00;;;;4914868;28;87802;-62
2024/01/19 01:50:02;;;;;;;33.10;17.40;;;-5.80;99.90;-6.50;99968.00;;;;4915250;28;117164;-63
2024/01/19 01:52:28;;;;;;;35.00;16.83;;;-5.80;99.90;-6.50;99973.00;;;;4930655;28;89856;-63
2024/01/19 01:54:54;;;;;;;29.00;16.70;;;-5.80;99.90;-6.50;99971.00;;;;4916882;28;115216;-62
2024/01/19 01:57:22;;;;;;;27.57;17.03;;;-5.90;99.90;-6.50;99982.00;;;;4916000;28;108510;-63
2024/01/19 01:59:48;;;;;;;31.13;17.07;;;-5.90;99.90;-6.60;99989.00;;;;4917802;28;116487;-63
2024/01/19 02:02:14;;;;;;;23.07;13.63;;;-5.90;99.90;-6.60;99991.00;;;;4929865;28;114690;-63
2024/01/19 02:04:40;;;;;;;22.33;14.00;;;-5.90;99.90;-6.60;99989.00;;;;4915257;28;113953;-63
2024/01/19 02:07:07;;;;;;;29.93;16.33;;;-5.90;99.90;-6.60;99987.00;;;;4915558;28;88974;-63
2024/01/19 02:09:32;;;;;;;30.67;17.60;;;-6.00;99.90;-6.60;99995.00;;;;4913878;28;107321;-64
2024/01/19 02:11:59;;;;;;;32.33;18.37;;;-5.90;99.90;-6.70;99991.00;;;;4916791;28;87891;-63
2024/01/19 02:14:24;;;;;;;24.80;15.00;;;-6.10;99.90;-6.70;99994.00;;;;4915478;28;112569;-63
2024/01/19 02:16:50;;;;;;;27.83;17.77;;;-6.10;99.90;-6.80;99996.00;;;;4920160;28;87801;-64
2024/01/19 02:19:16;;;;;;;28.47;16.27;;;-6.10;99.90;-6.90;100000.00;;;;4918813;28;118015;-63
2024/01/19 02:21:41;;;;;;;34.50;18.40;;;-6.10;99.90;-6.80;100014.00;;;;4917696;28;117706;-62
2024/01/19 02:24:15;;;;;;;29.67;16.77;;;-6.20;99.90;-6.90;100015.00;;;;4910609;28;113584;-63
2024/01/19 02:26:41;;;;;;;30.73;17.07;;;-5.60;99.90;-6.90;100015.00;;;;4919901;28;97353;-63
2024/01/19 02:29:06;;;;;;;30.23;16.37;;;-6.20;99.90;-6.90;100012.00;;;;4917024;28;98584;-63
2024/01/19 02:31:32;;;;;;;29.10;16.60;;;-6.20;99.90;-6.90;100020.00;;;;4914401;28;118793;-64
2024/01/19 02:33:58;;;;;;;27.37;15.60;;;-6.30;99.90;-6.80;100011.00;;;;4919438;28;87671;-64
2024/01/19 02:36:23;;;;;;;24.17;14.60;;;-6.20;99.90;-6.70;100013.00;;;;4912547;28;108320;-63
2024/01/19 02:38:49;;;;;;;28.40;16.37;;;-6.10;99.90;-6.70;100026.00;;;;4914622;28;109965;-63
2024/01/19 02:41:15;;;;;;;26.13;14.47;;;-6.00;99.90;-6.60;100019.00;;;;4917830;28;88210;-62
2024/01/19 02:43:41;;;;;;;25.43;14.17;;;-6.10;99.90;-6.50;100029.00;;;;4917866;28;98005;-63
2024/01/19 02:46:09;;;;;;;21.17;13.37;;;-6.00;99.90;-6.50;100022.00;;;;4915305;28;108938;-64
2024/01/19 02:48:34;;;;;;;24.23;14.87;;;-5.90;99.90;-6.40;100025.00;;;;4913728;28;102555;-63
2024/01/19 02:51:00;;;;;;;24.67;14.27;;;-5.70;99.90;-6.40;100032.00;;;;4916544;28;116925;-63
2024/01/19 02:53:26;;;;;;;23.87;13.07;;;-5.80;99.90;-6.30;100024.00;;;;4913974;28;113750;-63
2024/01/19 02:55:51;;;;;;;24.70;14.53;;;-5.80;99.90;-6.30;100027.00;;;;4916779;28;88729;-63
2024/01/19 02:58:17;;;;;;;32.67;15.93;;;-5.40;99.90;-6.20;100030.00;;;;4916714;28;88392;-64
2024/01/19 03:00:44;;;;;;;30.63;15.27;;;-5.60;99.90;-6.20;100028.00;;;;4917614;28;116859;-63
2024/01/19 03:03:09;;;;;;;23.03;14.03;;;-5.60;99.90;-6.10;100019.00;;;;4917585;28;88731;-64
2024/01/19 03:05:35;;;;;;;23.87;13.23;;;-5.60;99.90;-6.10;100028.00;;;;4905149;28;88010;-63
2024/01/19 03:08:01;;;;;;;25.07;14.67;;;-5.50;99.90;-6.00;100030.00;;;;4917419;28;115969;-63
2024/01/19 03:10:26;;;;;;;21.90;13.53;;;-5.50;99.90;-6.00;100027.00;;;;4920361;28;88594;-63
2024/01/19 03:12:52;;;;;;;23.27;13.47;;;-5.40;99.90;-6.00;100026.00;;;;4924640;28;112635;-63
2024/01/19 03:15:18;;;;;;;24.80;14.00;;;-5.30;99.90;-6.00;100041.00;;;;4921004;28;108898;-63
2024/01/19 03:17:43;;;;;;;24.37;12.70;;;-5.40;99.90;-5.90;100047.00;;;;4916088;28;118368;-63
2024/01/19 03:20:09;;;;;;;23.30;13.43;;;-5.30;99.90;-5.90;100043.00;;;;4922949;28;88673;-63
2024/01/19 03:22:35;;;;;;;26.47;14.37;;;-5.30;99.90;-5.90;100037.00;;;;4919395;28;103563;-63
2024/01/19 03:25:02;;;;;;;23.67;14.27;;;-5.30;99.90;-5.80;100046.00;;;;4918075;28;108667;-61
2024/01/19 03:27:28;;;;;;;22.33;13.03;;;-5.30;99.90;-5.80;100048.00;;;;4923600;28;88126;-63
2024/01/19 03:29:55;;;;;;;24.33;13.20;;;-5.30;99.90;-5.80;100059.00;;;;4919917;28;98421;-64
2024/01/19 03:32:21;;;;;;;25.43;14.77;;;-5.20;99.90;-5.70;100056.00;;;;4919320;28;87726;-63
2024/01/19 03:34:47;;;;;;;22.63;11.70;;;-5.20;99.90;-5.70;100051.00;;;;4919990;28;107927;-63
2024/01/19 03:37:13;;;;;;;21.07;12.87;;;-4.60;99.90;-5.70;100055.00;;;;4920088;28;87781;-63
2024/01/19 03:39:39;;;;;;;24.00;12.37;;;-5.00;99.90;-5.70;100059.00;;;;4918944;28;105986;-63
2024/01/19 03:42:05;;;;;;;22.87;12.97;;;-5.00;99.90;-5.70;100053.00;;;;4919716;28;110759;-63
2024/01/19 03:44:30;;;;;;;19.50;11.63;;;-5.10;99.90;-5.70;100074.00;;;;4918996;28;109116;-63
2024/01/19 03:46:59;;;;;;;21.83;13.13;;;-5.10;99.90;-5.70;100075.00;;;;4919242;28;88505;-63
2024/01/19 03:49:25;;;;;;;21.70;11.93;;;-5.10;99.90;-5.60;100068.00;;;;4917418;28;89538;-63
2024/01/19 03:52:02;;;;;;;24.47;14.07;;;-5.20;99.90;-5.60;100069.00;;;;4918526;28;94370;-63
2024/01/19 03:54:28;;;;;;;22.00;11.90;;;-5.00;99.90;-5.60;100086.00;;;;4916055;28;102492;-63
2024/01/19 03:57:01;;;;;;;22.53;12.33;;;-5.00;99.90;-5.60;100077.00;;;;4916620;28;116978;-63
2024/01/19 03:59:27;;;;;;;24.40;12.70;;;-5.00;99.90;-5.50;100068.00;;;;4931641;28;88445;-63
2024/01/19 04:01:54;;;;;;;20.20;12.30;;;-5.00;99.90;-5.50;100081.00;;;;4919597;28;86933;-63
2024/01/19 04:04:20;;;;;;;20.17;12.37;;;-4.90;99.90;-5.50;100087.00;;;;4918979;28;87762;-62
2024/01/19 04:06:46;;;;;;;20.70;12.00;;;-4.70;99.90;-5.50;100075.00;;;;4917865;28;118072;-62
2024/01/19 04:09:11;;;;;;;16.17;11.73;;;-4.20;99.90;-5.50;100074.00;;;;4920950;28;88827;-62
2024/01/19 04:11:37;;;;;;;17.50;11.60;;;-4.90;99.90;-5.40;100081.00;;;;4918428;28;88201;-63
2024/01/19 04:14:03;;;;;;;20.97;11.57;;;-4.90;99.90;-5.40;100087.00;;;;4918771;28;109098;-63
2024/01/19 04:16:29;;;;;;;17.07;11.67;;;-4.80;99.90;-5.40;100086.00;;;;4920586;28;118042;-63
2024/01/19 04:18:55;;;;;;;18.50;11.37;;;-4.90;99.90;-5.30;100088.00;;;;4921193;28;116863;-62
2024/01/19 04:21:21;;;;;;;19.77;12.03;;;-4.80;99.90;-5.30;100095.00;;;;4915131;28;110563;-62
2024/01/19 04:23:46;;;;;;;27.23;12.80;;;-4.80;99.90;-5.30;100086.00;;;;4918901;28;108366;-62
2024/01/19 04:26:12;;;;;;;18.30;12.47;;;-4.70;99.90;-5.30;100096.00;;;;4918010;28;118193;-62
2024/01/19 04:28:41;;;;;;;25.83;12.07;;;-4.70;99.90;-5.20;100107.00;;;;4917476;28;115597;-62
2024/01/19 04:31:07;;;;;;;17.73;11.77;;;-4.80;99.90;-5.20;100109.00;;;;4918874;28;87856;-63
2024/01/19 04:33:33;;;;;;;26.73;12.07;;;-4.60;99.90;-5.20;100112.00;;;;4922094;28;108395;-62
2024/01/19 04:35:58;;;;;;;20.07;12.03;;;-4.70;99.90;-5.20;100108.00;;;;4919917;28;89158;-62
2024/01/19 04:38:24;;;;;;;15.70;11.87;;;-4.70;99.90;-5.20;100115.00;;;;4919832;28;88270;-62
2024/01/19 04:40:50;;;;;;;25.97;11.20;;;-4.60;99.90;-5.20;100120.00;;;;4916651;28;112840;-60
2024/01/19 04:43:15;;;;;;;16.20;11.13;;;-3.80;99.90;-5.20;100119.00;;;;4920095;28;109256;-62
2024/01/19 04:45:41;;;;;;;25.47;11.67;;;-4.70;99.90;-5.20;100130.00;;;;4918600;28;117884;-62
2024/01/19 04:48:07;;;;;;;20.67;12.03;;;-4.60;99.90;-5.20;100133.00;;;;4914247;28;116747;-62
2024/01/19 04:50:33;;;;;;;21.20;11.93;;;-4.60;99.90;-5.30;100142.00;;;;4916578;28;90058;-62
2024/01/19 04:52:59;;;;;;;18.93;12.10;;;-4.70;99.90;-5.30;100155.00;;;;4916257;28;90049;-62
2024/01/19 04:55:24;;;;;;;22.30;11.30;;;-4.80;99.90;-5.30;100159.00;;;;4916198;28;115869;-62
2024/01/19 04:57:50;;;;;;;20.93;11.53;;;-4.80;99.90;-5.30;100152.00;;;;4918397;28;109270;-62
2024/01/19 05:00:16;;;;;;;20.03;11.20;;;-4.80;99.90;-5.40;100144.00;;;;4917535;28;113179;-62
2024/01/19 05:02:43;;;;;;;18.07;10.53;;;-4.90;99.90;-5.40;100149.00;;;;4916861;28;87915;-63
2024/01/19 05:05:09;;;;;;;15.77;10.07;;;-4.80;99.90;-5.40;100156.00;;;;4916190;28;117058;-63
2024/01/19 05:07:34;;;;;;;17.67;11.13;;;-4.90;99.90;-5.40;100151.00;;;;4920836;28;91773;-61
2024/01/19 05:10:00;;;;;;;15.47;9.90;;;-4.90;99.90;-5.40;100160.00;;;;4917345;28;98345;-61
2024/01/19 05:12:26;;;;;;;20.77;10.93;;;-4.80;99.90;-5.40;100155.00;;;;4916932;28;108761;-61
2024/01/19 05:14:52;;;;;;;17.37;9.83;;;-4.10;99.90;-5.40;100151.00;;;;4922059;28;111846;-61
2024/01/19 05:17:18;;;;;;;17.90;11.70;;;-4.80;99.90;-5.40;100166.00;;;;4921886;28;117246;-60
2024/01/19 05:19:44;;;;;;;16.57;9.77;;;-4.90;99.90;-5.40;100165.00;;;;4920595;28;87857;-61
2024/01/19 05:22:10;;;;;;;14.73;10.13;;;-4.90;99.90;-5.40;100165.00;;;;4914742;28;88987;-63
2024/01/19 05:24:40;;;;;;;19.87;11.33;;;-4.90;99.90;-5.40;100164.00;;;;4916707;28;116319;-61
2024/01/19 05:27:06;;;;;;;22.03;11.23;;;-4.80;99.90;-5.40;100161.00;;;;4913912;28;91996;-61
2024/01/19 05:29:31;;;;;;;17.80;11.13;;;-4.80;99.90;-5.40;100166.00;;;;4913609;28;111855;-61
2024/01/19 05:31:57;;;;;;;22.47;10.53;;;-4.90;99.90;-5.40;100170.00;;;;4912286;28;108501;-61
2024/01/19 05:34:23;;;;;;;18.60;11.40;;;-4.90;99.90;-5.40;100167.00;;;;4910957;28;117305;-62
2024/01/19 05:36:48;;;;;;;20.53;12.27;;;-4.80;99.90;-5.40;100167.00;;;;4911691;28;116208;-61
2024/01/19 05:39:14;;;;;;;18.93;11.30;;;-4.80;99.90;-5.40;100177.00;;;;4912581;28;112120;-61
2024/01/19 05:41:40;;;;;;;21.87;12.47;;;-4.80;99.90;-5.40;100171.00;;;;4913083;28;108139;-61
2024/01/19 05:44:06;;;;;;;19.07;11.33;;;-4.50;99.90;-5.40;100188.00;;;;4911191;28;117834;-62
2024/01/19 05:46:31;;;;;;;15.60;9.83;;;-6.00;99.90;-5.40;100189.00;;;;4915346;28;89207;-61
2024/01/19 05:48:57;;;;;;;22.37;12.93;;;-4.80;99.90;-5.30;100189.00;;;;4915728;28;113489;-60
2024/01/19 05:51:25;;;;;;;16.97;11.33;;;-4.00;99.90;-5.30;100198.00;;;;4915267;28;107540;-61
2024/01/19 05:53:51;;;;;;;23.53;12.00;;;-4.80;99.90;-5.30;100188.00;;;;4912041;28;118068;-61
2024/01/19 05:56:17;;;;;;;24.53;14.50;;;-4.70;99.90;-5.30;100190.00;;;;4909155;28;116605;-61
2024/01/19 05:58:43;;;;;;;26.30;13.73;;;-4.70;99.90;-5.30;100201.00;;;;4913223;28;88143;-61
2024/01/19 06:01:09;;;;;;;23.00;13.23;;;-4.80;99.90;-5.40;100199.00;;;;4913530;28;87670;-61
2024/01/19 06:03:35;;;;;;;19.40;12.03;;;-4.80;99.90;-5.40;100211.00;;;;4928289;28;108269;-62
2024/01/19 06:06:02;;;;;;;17.20;11.87;;;-4.80;99.90;-5.40;100205.00;;;;4911328;28;88293;-61
2024/01/19 06:08:29;;;;;;;26.37;13.37;;;-4.80;99.90;-5.40;100210.00;;;;4916641;28;88026;-61
2024/01/19 06:10:54;;;;;;;24.67;13.07;;;-4.80;99.90;-5.30;100223.00;;;;4912685;28;88832;-61
2024/01/19 06:13:20;;;;;;;20.63;12.53;;;-4.80;99.90;-5.40;100219.00;;;;4913442;28;103613;-61
2024/01/19 06:15:46;;;;;;;22.27;12.27;;;-4.80;99.90;-5.40;100230.00;;;;4910847;28;118029;-61
2024/01/19 06:18:11;;;;;;;19.60;12.17;;;-4.80;99.90;-5.40;100210.00;;;;4914142;28;113481;-62
2024/01/19 06:20:43;;;;;;;27.10;12.57;;;-4.80;99.90;-5.40;100222.00;;;;4917163;28;108770;-62
2024/01/19 06:23:10;;;;;;;20.00;10.70;;;-4.80;99.90;-5.40;100218.00;;;;4914717;28;88551;-60
2024/01/19 06:25:37;;;;;;;21.87;13.10;;;-4.90;99.90;-5.30;100215.00;;;;4911864;28;105075;-61
2024/01/19 06:28:03;;;;;;;20.00;11.70;;;-3.70;99.90;-5.30;100220.00;;;;4914012;28;86971;-61
2024/01/19 06:30:29;;;;;;;18.23;10.60;;;-4.70;99.90;-5.30;100217.00;;;;4915058;28;95988;-59
2024/01/19 06:32:55;;;;;;;20.63;12.63;;;-4.70;99.90;-5.30;100230.00;;;;4913710;28;88616;-61
2024/01/19 06:35:21;;;;;;;20.73;11.90;;;-4.90;99.90;-5.30;100223.00;;;;4912563;28;88844;-60
2024/01/19 06:37:46;;;;;;;22.37;13.30;;;-4.70;99.90;-5.30;100229.00;;;;4916723;28;89134;-61
2024/01/19 06:40:14;;;;;;;20.73;12.37;;;-4.70;99.90;-5.30;100233.00;;;;4911607;28;108332;-61
2024/01/19 06:42:44;;;;;;;22.13;12.10;;;-4.70;99.90;-5.30;100242.00;;;;4911746;28;89016;-61
2024/01/19 06:45:10;;;;;;;23.00;12.57;;;-4.70;99.90;-5.20;100243.00;;;;4915941;28;88168;-59
2024/01/19 06:47:36;;;;;;;21.37;12.87;;;-4.70;99.90;-5.20;100250.00;;;;4913711;28;87975;-58
2024/01/19 06:50:05;;;;;;;21.27;13.73;;;-5.20;99.90;-5.20;100259.00;;;;4912163;28;101161;-58
2024/01/19 06:52:31;;;;;;;21.77;13.00;;;-4.60;99.90;-5.10;100251.00;;;;4912806;28;96058;-61
2024/01/19 06:54:56;;;;;;;19.20;12.70;;;-4.60;99.90;-5.10;100261.00;;;;4911093;28;115034;-62
2024/01/19 06:57:22;;;;;;;20.67;12.73;;;-4.60;99.90;-5.10;100251.00;;;;4913510;28;111871;-62
2024/01/19 06:59:48;;;;;;;24.47;13.07;;;-4.60;99.90;-5.00;100255.00;;;;4914814;28;108587;-61
2024/01/19 07:02:13;;;;;;;23.30;14.03;;;-4.50;99.90;-5.00;100264.00;;;;4911418;28;88880;-59
2024/01/19 07:04:39;;;;;;;27.00;13.73;;;-4.60;99.90;-5.00;100247.00;;;;4910272;28;115626;-62
2024/01/19 07:07:05;;;;;;;21.43;12.80;;;-4.50;99.90;-5.00;100255.00;;;;4914009;28;113335;-61
2024/01/19 07:09:30;;;;;;;25.60;13.13;;;-4.40;99.90;-4.90;100250.00;;;;4910753;28;109411;-62
2024/01/19 07:11:56;;;;;;;30.57;12.73;;;-4.30;99.90;-4.80;100262.00;;;;4913226;28;117881;-59
2024/01/19 07:14:22;;;;;;;18.83;12.57;;;-4.30;99.90;-4.80;100275.00;;;;4909962;28;117296;-61
2024/01/19 07:16:47;;;;;;;19.07;12.73;;;-4.40;99.90;-4.70;100294.00;;;;4913704;28;113242;-62
2024/01/19 07:19:13;;;;;;;16.93;11.97;;;-4.20;99.90;-4.70;100284.00;;;;4915915;28;107750;-62
2024/01/19 07:21:40;;;;;;;24.10;13.23;;;-4.20;99.90;-4.70;100282.00;;;;4910003;28;117620;-63
2024/01/19 07:24:07;;;;;;;20.13;12.60;;;-4.30;99.90;-4.70;100274.00;;;;4912710;28;107322;-59
2024/01/19 07:26:34;;;;;;;26.43;13.53;;;-4.00;99.90;-4.60;100269.00;;;;4911649;28;94659;-61
2024/01/19 07:29:04;;;;;;;26.60;14.23;;;-4.20;99.90;-4.40;100282.00;;;;4913486;28;93889;-60
2024/01/19 07:31:30;;;;;;;22.23;13.93;;;-4.10;99.90;-4.30;100291.00;;;;4911074;28;88197;-62
2024/01/19 07:33:56;;;;;;;25.07;14.37;;;-3.80;99.90;-4.10;100288.00;;;;4911034;28;88278;-59
2024/01/19 07:36:22;;;;;;;26.90;13.97;;;-3.70;99.90;-3.90;100282.00;;;;4914226;28;113070;-59
2024/01/19 07:38:48;;;;;;;23.37;14.03;;;-3.50;99.90;-3.70;100287.00;;;;4910563;28;88228;-63
2024/01/19 07:41:13;;;;;;;25.63;12.70;;;-3.30;99.90;-3.50;100282.00;;;;4910447;28;108120;-61
2024/01/19 07:43:39;;;;;;;28.70;14.77;;;-3.00;99.90;-3.30;100288.00;;;;4910652;28;114414;-59
2024/01/19 07:46:05;;;;;;;25.13;14.60;;;-2.90;99.90;-3.00;100281.00;;;;4912280;28;111756;-63
2024/01/19 07:48:31;;;;;;;31.40;15.37;;;-2.70;99.90;-2.80;100296.00;;;;4915782;28;89110;-59
2024/01/19 07:50:57;;;;;;;20.90;13.37;;;-2.60;99.90;-2.60;100291.00;;;;4917769;28;88392;-61
2024/01/19 07:53:22;;;;;;;22.50;13.23;;;-2.30;99.90;-2.40;100290.00;;;;4917212;28;117247;-62
2024/01/19 07:55:48;;;;;;;20.90;12.43;;;-2.10;99.90;-2.30;100305.00;;;;4916600;28;105408;-62
2024/01/19 07:58:14;;;;;;;22.30;12.10;;;-1.90;99.90;-2.30;100304.00;;;;4914339;28;109096;-62
2024/01/19 08:00:39;;;;;;;15.17;9.30;;;-1.90;99.90;-2.40;100320.00;;;;4915917;28;96721;-63
2024/01/19 08:03:05;;;;;;;16.83;10.53;;;-2.00;99.90;-2.50;100310.00;;;;4912002;28;115592;-60
2024/01/19 08:05:31;;;;;;;16.90;10.63;;;-2.00;99.90;-2.40;100316.00;;;;4913564;28;87482;-61
2024/01/19 08:07:56;;;;;;;19.00;9.67;;;-2.00;99.90;-2.40;100303.00;;;;4915381;28;109395;-62
2024/01/19 08:10:22;;;;;;;16.07;9.37;;;-2.10;99.90;-2.50;100304.00;;;;4914307;28;116604;-62
2024/01/19 08:12:48;;;;;;;15.10;9.60;;;-1.90;99.90;-2.50;100306.00;;;;4915660;28;101419;-62
2024/01/19 08:15:14;;;;;;;17.07;10.63;;;-2.00;99.90;-2.40;100302.00;;;;4918092;28;88243;-61
2024/01/19 08:17:40;;;;;;;17.10;9.93;;;-1.80;99.90;-2.40;100301.00;;;;4918012;28;87816;-62
2024/01/19 08:20:10;;;;;;;13.77;9.40;;;-1.90;99.90;-2.30;100308.00;;;;4919255;28;87905;-63
2024/01/19 08:22:37;;;;;;;12.47;9.50;;;-1.80;99.90;-2.00;100316.00;;;;4917810;28;88290;-63
2024/01/19 08:25:04;;;;;;;15.03;8.87;;;-1.80;99.90;-2.10;100316.00;;;;4916877;28;88058;-63
2024/01/19 08:27:30;;;;;;;12.67;7.87;;;-1.60;99.90;-2.20;100313.00;;;;4918673;28;88070;-62
2024/01/19 08:29:55;;;;;;;11.37;9.33;;;-1.70;99.90;-2.20;100313.00;;;;4914520;28;110108;-64
2024/01/19 08:32:23;;;;;;;11.33;7.43;;;-1.80;99.90;-2.20;100341.00;;;;4913823;28;110281;-65
2024/01/19 08:34:49;;;;;;;11.47;8.30;;;-1.80;99.90;-2.10;100324.00;;;;4915997;28;87863;-63
2024/01/19 08:37:15;;;;;;;17.87;9.40;;;-1.70;99.90;-1.80;100333.00;;;;4916303;28;89015;-63
2024/01/19 08:39:40;;;;;;;13.80;8.87;;;-1.50;99.90;-1.50;100331.00;;;;4913483;28;117828;-63
2024/01/19 08:42:06;;;;;;;13.27;8.60;;;-1.20;99.90;-1.40;100335.00;;;;4919403;28;110596;-62
2024/01/19 08:44:32;;;;;;;11.07;7.57;;;-1.10;99.90;-1.20;100348.00;;;;4916855;28;95598;-62
2024/01/19 08:46:58;;;;;;;15.63;8.67;;;-0.20;99.90;-1.10;100352.00;;;;4914384;28;101817;-64
2024/01/19 08:49:26;;;;;;;8.73;6.53;;;-0.80;99.90;-0.90;100363.00;;;;4913886;28;92008;-63
2024/01/19 08:51:53;;;;;;;16.00;8.23;;;-0.60;99.90;-0.70;100365.00;;;;4915548;28;88354;-64
2024/01/19 08:54:19;;;;;;;11.83;7.63;;;-0.40;99.90;-0.50;100369.00;;;;4918306;28;87075;-63
2024/01/19 08:56:44;;;;;;;9.60;7.20;;;-0.30;99.90;-0.40;100370.00;;;;4917555;28;88141;-63
2024/01/19 08:59:12;;;;;;;9.77;6.37;;;-0.10;99.90;-0.30;100365.00;;;;4915146;28;117749;-63
2024/01/19 09:01:38;;;;;;;12.40;7.43;;;-0.10;99.90;-0.10;100381.00;;;;4913954;28;89595;-63
2024/01/19 09:04:04;;;;;;;11.27;7.83;;;0.20;99.90;0.00;100385.00;;;;4917922;28;87958;-63
2024/01/19 09:06:30;;;;;;;10.17;6.23;;;0.40;99.90;0.20;100384.00;;;;4912957;28;109065;-63
2024/01/19 09:09:01;;;;;;;9.30;5.90;;;0.50;99.90;0.30;100397.00;;;;4914247;28;118646;-64
2024/01/19 09:11:26;;;;;;;8.63;6.27;;;0.50;99.90;0.40;100390.00;;;;4917170;28;88182;-63
2024/01/19 09:13:52;;;;;;;11.53;5.43;;;0.60;99.90;0.20;100403.00;;;;4916738;28;100327;-64
2024/01/19 09:16:19;;;;;;;5.60;4.47;;;0.60;99.90;0.30;100396.00;;;;4913947;28;88082;-63
2024/01/19 09:18:45;;;;;;;6.67;4.90;;;0.60;99.90;0.40;100414.00;;;;4914350;28;88410;-64
2024/01/19 09:21:17;;;;;;;6.33;4.60;;;0.60;99.90;0.30;100433.00;;;;4912548;28;115847;-64
2024/01/19 09:23:42;;;;;;;6.30;4.77;;;0.60;99.90;0.20;100418.00;;;;4915331;28;88273;-64
2024/01/19 09:26:19;;;;;;;6.30;5.30;;;0.60;99.90;0.20;100430.00;;;;4915264;28;105660;-64
2024/01/19 09:28:45;;;;;;;7.13;4.67;;;0.50;99.90;0.40;100437.00;;;;4917785;28;89954;-64
2024/01/19 09:31:11;;;;;;;7.80;5.17;;;0.60;99.90;0.30;100435.00;;;;4914579;28;87960;-64
2024/01/19 09:33:36;;;;;;;9.07;4.73;;;0.60;99.90;0.20;100451.00;;;;4913874;28;87569;-65
2024/01/19 09:36:02;;;;;;;6.90;4.40;;;0.60;99.90;0.10;100442.00;;;;4915879;28;108521;-65
2024/01/19 09:38:28;;;;;;;5.20;4.50;;;1.00;99.90;0.20;100455.00;;;;4917234;28;106931;-65
2024/01/19 09:41:38;;;;;;;10.33;5.03;;;0.60;99.90;0.20;100448.00;;;;4913509;28;117684;-64
2024/01/19 09:44:11;;;;;;;8.10;5.37;;;1.40;99.90;0.20;100447.00;;;;4915927;28;87472;-64
2024/01/19 09:46:49;;;;;;;5.83;4.67;;;0.60;99.90;0.20;100449.00;;;;4916215;28;91709;-64
2024/01/19 09:49:47;;;;;;;6.00;4.07;;;0.40;99.90;0.50;100449.00;;;;4915059;28;108237;-65
2024/01/19 09:52:27;;;;;;;6.60;4.23;;;0.70;99.90;0.70;100456.00;;;;4910818;28;98709;-65
2024/01/19 09:54:54;;;;;;;7.57;4.73;;;0.90;99.90;0.90;100457.00;;;;4915057;28;87851;-65
2024/01/19 09:57:20;;;;;;;7.90;4.93;;;1.10;99.90;1.10;100456.00;;;;4916690;28;88130;-65
2024/01/19 09:59:46;;;;;;;7.20;4.90;;;1.20;99.90;1.30;100455.00;;;;4911517;28;117788;-65
2024/01/19 10:02:15;;;;;;;4.87;3.90;;;1.50;99.90;1.40;100470.00;;;;4913857;28;87987;-65
2024/01/19 10:04:41;;;;;;;3.80;3.37;;;1.70;99.90;1.60;100468.00;;;;4915414;28;87845;-66
2024/01/19 10:07:07;;;;;;;4.13;3.73;;;3.30;99.90;1.70;100468.00;;;;4915306;28;105987;-66
2024/01/19 10:09:33;;;;;;;5.87;3.87;;;2.00;99.90;1.70;100460.00;;;;4915065;28;87958;-67
2024/01/19 10:11:59;;;;;;;11.00;4.47;;;2.10;99.90;1.70;100468.00;;;;4915313;28;116646;-67
2024/01/19 10:14:26;;;;;;;7.27;3.27;;;2.00;99.90;1.70;100465.00;;;;4912947;28;104024;-66
2024/01/19 10:16:52;;;;;;;4.03;3.73;;;2.00;99.90;1.80;100467.00;;;;4918308;28;88783;-65
2024/01/19 10:19:21;;;;;;;4.33;3.10;;;2.10;99.90;1.90;100468.00;;;;4912721;28;89297;-68
2024/01/19 10:21:47;;;;;;;6.43;2.97;;;2.30;99.90;1.90;100465.00;;;;4910582;28;88242;-66
2024/01/19 10:24:15;;;;;;;5.73;3.57;;;2.10;99.90;2.00;100478.00;;;;4911110;28;109660;-67
2024/01/19 10:26:42;;;;;;;4.27;3.63;;;2.20;99.90;2.00;100458.00;;;;4913490;28;87967;-67
2024/01/19 10:29:16;;;;;;;4.37;2.90;;;2.30;99.90;2.10;100472.00;;;;4909592;28;88283;-68
2024/01/19 10:31:45;;;;;;;6.03;3.67;;;2.40;99.90;2.10;100479.00;;;;4912788;28;109634;-68
2024/01/19 10:34:22;;;;;;;5.83;3.17;;;2.50;99.90;2.20;100476.00;;;;4916720;28;89455;-67
2024/01/19 10:36:50;;;;;;;6.77;3.13;;;2.50;99.90;2.20;100488.00;;;;4913972;28;96189;-67
2024/01/19 10:39:23;;;;;;;5.23;3.53;;;2.50;99.90;2.30;100487.00;;;;4913310;28;88880;-69